createdAt,value
2018-07-21T00:03:50.330Z,14.00
2018-07-21T00:08:55.159Z,13.50
2018-07-21T00:13:58.910Z,14.00
2018-07-21T00:19:02.846Z,14.50
2018-07-21T00:24:08.234Z,14.75
2018-07-21T00:29:13.213Z,15.40
2018-07-21T00:34:16.917Z,14.60
2018-07-21T00:39:20.700Z,13.75
2018-07-21T00:44:25.286Z,16.50
2018-07-21T00:49:28.942Z,17.00
2018-07-21T00:54:32.579Z,16.25
2018-07-21T00:59:36.266Z,16.00
2018-07-21T01:04:41.144Z,15.00
2018-07-21T01:09:45.147Z,14.20
2018-07-21T01:14:48.929Z,15.60
2018-07-21T01:19:54.046Z,15.25
2018-07-21T01:24:57.754Z,17.50
2018-07-21T01:30:03.996Z,15.25
2018-07-21T01:35:09.324Z,16.60
2018-07-21T01:40:13.155Z,16.75
2018-07-21T01:45:16.984Z,17.20
2018-07-21T01:50:21.019Z,17.40
2018-07-21T01:55:24.771Z,15.60
2018-07-21T02:00:28.537Z,17.40
2018-07-21T02:05:32.221Z,15.50
2018-07-21T02:10:36.002Z,17.60
2018-07-21T02:15:39.766Z,17.00
2018-07-21T02:20:44.861Z,17.00
2018-07-21T02:25:48.642Z,16.80
2018-07-21T02:30:53.207Z,17.50
2018-07-21T02:35:58.147Z,16.40
2018-07-21T02:41:01.888Z,18.80
2018-07-21T02:46:05.913Z,18.00
2018-07-21T02:51:09.746Z,16.25
2018-07-21T02:56:13.489Z,16.00
2018-07-21T03:01:17.884Z,18.50
2018-07-21T03:06:21.589Z,18.50
2018-07-21T03:11:25.310Z,19.00
2018-07-21T03:16:29.052Z,18.20
2018-07-21T03:21:33.154Z,18.40
2018-07-21T03:26:36.919Z,18.20
2018-07-21T03:31:40.695Z,19.75
2018-07-21T03:36:44.419Z,20.00
2018-07-21T03:41:48.237Z,18.25
2018-07-21T03:46:51.924Z,18.80
2018-07-21T03:51:55.637Z,19.25
2018-07-21T03:56:59.398Z,20.25
2018-07-21T04:02:03.242Z,19.00
2018-07-21T04:07:07.043Z,19.60
2018-07-21T04:12:10.839Z,20.75
2018-07-21T04:17:18.627Z,18.50
2018-07-21T04:22:22.924Z,19.75
2018-07-21T04:27:26.609Z,19.50
2018-07-21T04:32:30.351Z,20.25
2018-07-21T04:37:34.130Z,18.80
2018-07-21T04:42:37.810Z,19.80
2018-07-21T04:47:41.491Z,20.00
2018-07-21T04:52:45.178Z,19.75
2018-07-21T04:57:48.968Z,20.60
2018-07-21T05:02:54.146Z,19.00
2018-07-21T05:07:58.811Z,20.40
2018-07-21T05:13:02.451Z,18.50
2018-07-21T05:18:06.152Z,19.50
2018-07-21T05:23:09.806Z,19.20
2018-07-21T05:28:13.524Z,19.00
2018-07-21T05:33:17.659Z,18.50
2018-07-21T05:38:22.046Z,20.00
2018-07-21T05:43:26.092Z,20.40
2018-07-21T05:48:29.795Z,18.25
2018-07-21T05:53:33.498Z,19.00
2018-07-21T05:58:37.208Z,19.75
2018-07-21T06:03:40.948Z,19.40
2018-07-21T06:08:47.751Z,19.00
2018-07-21T06:13:51.371Z,18.75
2018-07-21T06:18:55.098Z,20.80
2018-07-21T06:23:58.810Z,18.00
2018-07-21T06:29:02.432Z,20.50
2018-07-21T06:34:06.446Z,19.00
2018-07-21T06:39:12.082Z,19.00
2018-07-21T06:44:19.895Z,18.75
2018-07-21T06:49:24.775Z,18.75
2018-07-21T06:54:28.617Z,18.75
2018-07-21T06:59:32.259Z,20.25
2018-07-21T07:04:36.041Z,18.75
2018-07-21T07:09:39.693Z,18.80
2018-07-21T07:14:44.046Z,18.50
2018-07-21T07:19:47.742Z,19.25
2018-07-21T07:24:51.714Z,21.00
2018-07-21T07:29:55.405Z,20.50
2018-07-21T07:34:59.103Z,18.40
2018-07-21T07:40:03.574Z,20.00
2018-07-21T07:45:08.229Z,19.17
2018-07-21T07:50:11.935Z,19.20
2018-07-21T07:55:15.625Z,19.40
2018-07-21T08:00:19.282Z,19.75
2018-07-21T08:05:23.073Z,20.00
2018-07-21T08:10:27.340Z,18.00
2018-07-21T08:15:31.129Z,19.80
2018-07-21T08:20:34.871Z,20.60
2018-07-21T08:25:38.552Z,19.00
2018-07-21T08:30:42.312Z,16.75
2018-07-21T08:35:45.970Z,19.50
2018-07-21T08:40:49.635Z,17.80
2018-07-21T08:45:53.334Z,18.75
2018-07-21T08:50:57.067Z,17.60
2018-07-21T08:56:00.732Z,18.80
2018-07-21T09:01:04.394Z,18.00
2018-07-21T09:06:08.112Z,18.50
2018-07-21T09:11:11.911Z,20.60
2018-07-21T09:16:15.601Z,20.75
2018-07-21T09:21:19.270Z,21.75
2018-07-21T09:26:22.982Z,21.60
2018-07-21T09:31:26.686Z,20.60
2018-07-21T09:36:30.437Z,21.75
2018-07-21T09:41:34.102Z,20.75
2018-07-21T09:46:37.869Z,20.40
2018-07-21T09:51:41.771Z,20.25
2018-07-21T09:56:45.501Z,20.25
2018-07-21T10:01:49.180Z,19.00
2018-07-21T10:06:52.863Z,19.60
2018-07-21T10:11:56.543Z,20.00
2018-07-21T10:17:00.194Z,19.75
2018-07-21T10:22:03.931Z,19.80
2018-07-21T10:27:12.184Z,19.60
2018-07-21T10:32:15.939Z,21.00
2018-07-21T10:37:19.608Z,21.60
2018-07-21T10:42:23.304Z,20.50
2018-07-21T10:47:26.997Z,22.20
2018-07-21T10:52:30.661Z,22.20
2018-07-21T10:57:34.296Z,21.25
2018-07-21T11:02:37.849Z,22.00
2018-07-21T11:07:41.365Z,23.20
2018-07-21T11:12:45.160Z,22.50
2018-07-21T11:17:48.835Z,22.00
2018-07-21T11:22:52.613Z,21.20
2018-07-21T11:27:56.299Z,22.50
2018-07-21T11:32:59.946Z,21.20
2018-07-21T11:38:03.627Z,20.75
2018-07-21T11:43:07.582Z,23.25
2018-07-21T11:48:12.101Z,22.20
2018-07-21T11:53:15.816Z,21.20
2018-07-21T11:58:19.720Z,20.75
2018-07-21T12:03:23.374Z,21.00
2018-07-21T12:08:27.035Z,18.40
2018-07-21T12:13:30.913Z,21.00
2018-07-21T12:18:35.306Z,20.75
2018-07-21T12:23:39.386Z,19.60
2018-07-21T12:28:43.337Z,19.60
2018-07-21T12:33:47.161Z,17.80
2018-07-21T12:38:50.746Z,19.00
2018-07-21T12:43:54.649Z,18.25
2018-07-21T12:48:58.328Z,18.50
2018-07-21T12:57:10.829Z,18.00
2018-07-21T13:02:15.011Z,17.75
2018-07-21T13:07:18.768Z,18.75
2018-07-21T13:12:22.530Z,18.25
2018-07-21T13:17:26.350Z,18.00
2018-07-21T13:22:30.105Z,16.60
2018-07-21T13:27:34.008Z,16.80
2018-07-21T13:32:37.758Z,16.75
2018-07-21T13:37:41.486Z,18.25
2018-07-21T13:42:45.229Z,15.00
2018-07-21T13:47:48.956Z,17.60
2018-07-21T13:52:52.582Z,17.75
2018-07-21T13:57:56.302Z,16.80
2018-07-21T14:03:00.308Z,17.40
2018-07-21T14:08:03.938Z,17.80
2018-07-21T14:13:07.860Z,18.25
2018-07-21T14:18:11.629Z,16.40
2018-07-21T14:23:15.302Z,19.50
2018-07-21T14:28:18.921Z,17.80
2018-07-21T14:33:22.610Z,18.50
2018-07-21T14:38:26.283Z,19.00
2018-07-21T14:43:29.954Z,15.20
2018-07-21T14:48:33.662Z,14.25
2018-07-21T14:53:37.366Z,14.00
2018-07-21T14:58:41.026Z,15.20
2018-07-21T15:03:49.934Z,13.75
2018-07-21T15:08:57.354Z,14.50
2018-07-21T15:14:00.965Z,14.00
2018-07-21T15:19:04.790Z,14.20
2018-07-21T15:24:09.004Z,14.25
2018-07-21T15:29:12.679Z,15.00
2018-07-21T15:34:17.231Z,15.00
2018-07-21T15:39:21.947Z,15.50
2018-07-21T15:44:25.708Z,16.00
2018-07-21T15:49:29.402Z,14.00
2018-07-21T15:54:34.272Z,15.20
2018-07-21T15:59:38.185Z,14.00
2018-07-21T16:04:42.299Z,13.20
2018-07-21T16:09:46.123Z,14.40
2018-07-21T16:14:49.860Z,13.00
2018-07-21T16:19:53.595Z,13.75
2018-07-21T16:24:57.484Z,13.00
2018-07-21T16:30:05.300Z,12.50
2018-07-21T16:35:09.095Z,14.40
2018-07-21T16:40:12.881Z,16.00
2018-07-21T16:45:17.719Z,14.00
2018-07-21T16:50:22.749Z,13.00
2018-07-21T16:55:26.845Z,13.20
2018-07-21T17:00:30.579Z,13.80
2018-07-21T17:05:34.438Z,14.25
2018-07-21T17:10:38.226Z,15.50
2018-07-21T17:15:41.966Z,13.80
2018-07-21T17:20:45.744Z,13.40
2018-07-21T17:25:49.705Z,13.20
2018-07-21T17:30:53.784Z,14.75
2018-07-21T17:35:57.722Z,14.25
2018-07-21T17:41:01.520Z,13.25
2018-07-21T17:46:05.247Z,13.20
2018-07-21T17:51:09.468Z,14.40
2018-07-21T17:56:13.252Z,13.80
2018-07-21T18:01:17.044Z,11.80
2018-07-21T18:06:20.857Z,16.00
2018-07-21T18:11:25.166Z,14.00
2018-07-21T18:16:28.971Z,15.00
2018-07-21T18:21:32.898Z,15.00
2018-07-21T18:26:37.712Z,14.00
2018-07-21T18:31:41.542Z,17.00
2018-07-21T18:36:45.352Z,14.60
2018-07-21T18:41:49.456Z,15.00
2018-07-21T18:46:53.446Z,15.25
2018-07-21T18:51:57.256Z,16.20
2018-07-21T18:57:00.991Z,15.50
2018-07-21T19:02:04.745Z,17.00
2018-07-21T19:07:08.475Z,16.20
2018-07-21T19:12:17.572Z,14.80
2018-07-21T19:17:21.511Z,16.25
2018-07-21T19:22:25.283Z,17.50
2018-07-21T19:27:31.296Z,15.25
2018-07-21T19:32:39.915Z,17.25
2018-07-21T19:37:49.780Z,17.50
2018-07-21T19:42:53.490Z,16.25
2018-07-21T19:47:57.131Z,18.50
2018-07-21T19:53:00.818Z,17.60
2018-07-21T19:58:04.564Z,17.25
2018-07-21T20:03:08.315Z,17.25
2018-07-21T20:08:12.057Z,17.60
2018-07-21T20:13:15.873Z,17.00
2018-07-21T20:18:19.738Z,18.25
2018-07-21T20:23:23.539Z,18.00
2018-07-21T20:28:27.303Z,19.00
2018-07-21T20:33:31.127Z,17.40
2018-07-21T20:38:35.008Z,18.60
2018-07-21T20:43:38.704Z,14.50
2018-07-21T20:48:42.486Z,17.50
2018-07-21T20:53:46.258Z,18.00
2018-07-21T20:58:50.042Z,19.00
2018-07-21T21:03:53.759Z,19.00
2018-07-21T21:08:57.576Z,19.00
2018-07-21T21:14:01.269Z,17.40
2018-07-21T21:19:05.702Z,16.60
2018-07-21T21:24:09.447Z,16.75
2018-07-21T21:29:13.191Z,17.00
2018-07-21T21:34:16.874Z,16.00
2018-07-21T21:39:20.607Z,17.25
2018-07-21T21:44:24.275Z,16.25
2018-07-21T21:49:28.041Z,18.60
2018-07-21T21:54:31.730Z,18.75
2018-07-21T21:59:35.622Z,18.25
2018-07-21T22:04:39.431Z,15.60
2018-07-21T22:09:43.282Z,16.40
2018-07-21T22:14:47.750Z,17.25
2018-07-21T22:19:51.606Z,16.00
2018-07-21T22:24:56.252Z,18.00
2018-07-21T22:30:00.503Z,17.40
2018-07-21T22:35:08.050Z,17.50
2018-07-21T22:40:11.893Z,16.60
2018-07-21T22:45:15.731Z,15.40
2018-07-21T22:50:19.446Z,16.60
2018-07-21T22:55:23.343Z,16.50
2018-07-21T23:00:27.150Z,17.00
2018-07-21T23:05:30.870Z,17.60
2018-07-21T23:10:34.610Z,17.40
2018-07-21T23:15:38.305Z,17.50
2018-07-21T23:20:42.035Z,17.75
2018-07-21T23:25:45.831Z,17.00
2018-07-21T23:30:49.624Z,17.00
2018-07-21T23:35:53.379Z,16.75
2018-07-21T23:40:57.221Z,17.60
2018-07-21T23:46:01.070Z,17.75
2018-07-21T23:51:06.846Z,18.25
2018-07-21T23:56:11.311Z,17.20
